sensor_id;sensor_type;location;lat;lon;timestamp;pressure;altitude;pressure_sealevel;temperature;humidity
22257;BME280;11297;42.686;23.374;2022-09-24T00:00:47;95354.44;;;12.20;56.41
22257;BME280;11297;42.686;23.374;2022-09-24T00:03:16;95359.16;;;12.18;56.21
22257;BME280;11297;42.686;23.374;2022-09-24T00:05:43;95352.09;;;12.10;56.38
22257;BME280;11297;42.686;23.374;2022-09-24T00:08:09;95355.00;;;12.09;56.33
22257;BME280;11297;42.686;23.374;2022-09-24T00:10:38;95357.75;;;12.04;56.62
22257;BME280;11297;42.686;23.374;2022-09-24T00:13:05;95352.00;;;11.93;56.70
22257;BME280;11297;42.686;23.374;2022-09-24T00:15:35;95359.53;;;11.95;56.73
22257;BME280;11297;42.686;23.374;2022-09-24T00:18:02;95357.69;;;11.95;57.03
22257;BME280;11297;42.686;23.374;2022-09-24T00:20:30;95354.03;;;11.96;56.62
22257;BME280;11297;42.686;23.374;2022-09-24T00:22:57;95353.72;;;11.98;56.63
22257;BME280;11297;42.686;23.374;2022-09-24T00:25:23;95358.34;;;12.01;56.16
22257;BME280;11297;42.686;23.374;2022-09-24T00:28:07;95344.53;;;12.00;56.12
22257;BME280;11297;42.686;23.374;2022-09-24T00:30:33;95355.13;;;12.04;56.12
22257;BME280;11297;42.686;23.374;2022-09-24T00:32:58;95354.84;;;12.05;56.11
22257;BME280;11297;42.686;23.374;2022-09-24T00:35:24;95358.97;;;12.06;56.39
22257;BME280;11297;42.686;23.374;2022-09-24T00:37:50;95357.44;;;12.05;56.32
22257;BME280;11297;42.686;23.374;2022-09-24T00:40:15;95349.31;;;12.07;56.46
22257;BME280;11297;42.686;23.374;2022-09-24T00:42:41;95349.78;;;12.09;56.63
22257;BME280;11297;42.686;23.374;2022-09-24T00:45:08;95345.34;;;12.09;56.30
22257;BME280;11297;42.686;23.374;2022-09-24T00:47:41;95343.97;;;12.12;56.20
22257;BME280;11297;42.686;23.374;2022-09-24T00:50:36;95352.09;;;12.10;56.16
22257;BME280;11297;42.686;23.374;2022-09-24T00:53:08;95340.44;;;12.08;55.99
22257;BME280;11297;42.686;23.374;2022-09-24T00:55:35;95343.16;;;12.03;56.01
22257;BME280;11297;42.686;23.374;2022-09-24T00:58:04;95332.28;;;12.01;55.57
22257;BME280;11297;42.686;23.374;2022-09-24T01:00:30;95338.41;;;11.96;55.58
22257;BME280;11297;42.686;23.374;2022-09-24T01:03:01;95334.56;;;11.94;55.58
22257;BME280;11297;42.686;23.374;2022-09-24T01:05:27;95337.00;;;11.91;55.74
22257;BME280;11297;42.686;23.374;2022-09-24T01:07:53;95333.44;;;11.87;55.87
22257;BME280;11297;42.686;23.374;2022-09-24T01:10:22;95333.56;;;11.82;55.67
22257;BME280;11297;42.686;23.374;2022-09-24T01:16:27;95339.53;;;11.52;55.34
22257;BME280;11297;42.686;23.374;2022-09-24T01:21:55;95335.28;;;11.21;56.41
22257;BME280;11297;42.686;23.374;2022-09-24T01:27:07;95335.78;;;11.09;56.77
22257;BME280;11297;42.686;23.374;2022-09-24T01:35:08;95330.94;;;10.95;57.21
22257;BME280;11297;42.686;23.374;2022-09-24T01:37:39;95338.06;;;10.89;56.45
22257;BME280;11297;42.686;23.374;2022-09-24T01:40:07;95332.09;;;10.89;56.07
22257;BME280;11297;42.686;23.374;2022-09-24T01:42:42;95329.97;;;10.91;56.24
22257;BME280;11297;42.686;23.374;2022-09-24T01:45:10;95329.97;;;10.91;56.21
22257;BME280;11297;42.686;23.374;2022-09-24T01:47:38;95342.06;;;10.95;56.93
22257;BME280;11297;42.686;23.374;2022-09-24T01:50:07;95337.97;;;10.94;56.79
22257;BME280;11297;42.686;23.374;2022-09-24T01:52:39;95328.91;;;10.92;56.49
22257;BME280;11297;42.686;23.374;2022-09-24T01:55:07;95340.56;;;10.94;57.25
22257;BME280;11297;42.686;23.374;2022-09-24T01:57:43;95341.91;;;10.92;56.92
22257;BME280;11297;42.686;23.374;2022-09-24T02:00:13;95343.75;;;10.91;56.75
22257;BME280;11297;42.686;23.374;2022-09-24T02:03:04;95344.34;;;10.88;57.25
22257;BME280;11297;42.686;23.374;2022-09-24T02:05:33;95348.75;;;10.88;56.89
22257;BME280;11297;42.686;23.374;2022-09-24T02:08:08;95353.19;;;10.87;56.76
22257;BME280;11297;42.686;23.374;2022-09-24T02:10:40;95356.66;;;10.83;57.45
22257;BME280;11297;42.686;23.374;2022-09-24T02:13:11;95349.72;;;10.78;57.05
22257;BME280;11297;42.686;23.374;2022-09-24T02:15:38;95358.09;;;10.75;57.46
22257;BME280;11297;42.686;23.374;2022-09-24T02:18:08;95357.13;;;10.71;57.90
22257;BME280;11297;42.686;23.374;2022-09-24T02:20:38;95364.56;;;10.64;58.01
22257;BME280;11297;42.686;23.374;2022-09-24T02:23:05;95368.69;;;10.52;57.96
22257;BME280;11297;42.686;23.374;2022-09-24T02:25:36;95364.00;;;10.41;58.02
22257;BME280;11297;42.686;23.374;2022-09-24T02:28:03;95372.38;;;10.38;58.25
22257;BME280;11297;42.686;23.374;2022-09-24T02:30:33;95374.69;;;10.26;59.10
22257;BME280;11297;42.686;23.374;2022-09-24T02:33:03;95378.22;;;10.30;58.98
22257;BME280;11297;42.686;23.374;2022-09-24T02:35:50;95385.53;;;10.28;59.01
22257;BME280;11297;42.686;23.374;2022-09-24T02:38:17;95381.09;;;10.28;59.22
22257;BME280;11297;42.686;23.374;2022-09-24T02:40:43;95382.75;;;10.24;58.86
22257;BME280;11297;42.686;23.374;2022-09-24T02:43:09;95391.88;;;10.22;59.06
22257;BME280;11297;42.686;23.374;2022-09-24T02:45:34;95385.13;;;10.21;58.79
22257;BME280;11297;42.686;23.374;2022-09-24T02:48:00;95386.50;;;10.18;58.46
22257;BME280;11297;42.686;23.374;2022-09-24T02:50:25;95386.59;;;10.13;58.34
22257;BME280;11297;42.686;23.374;2022-09-24T02:52:51;95390.34;;;10.07;58.80
22257;BME280;11297;42.686;23.374;2022-09-24T02:55:17;95401.56;;;10.03;58.87
22257;BME280;11297;42.686;23.374;2022-09-24T02:57:42;95393.56;;;10.00;58.63
22257;BME280;11297;42.686;23.374;2022-09-24T03:00:08;95406.53;;;10.00;58.78
22257;BME280;11297;42.686;23.374;2022-09-24T03:02:34;95392.13;;;9.94;59.02
22257;BME280;11297;42.686;23.374;2022-09-24T03:04:59;95398.63;;;9.91;59.68
22257;BME280;11297;42.686;23.374;2022-09-24T03:07:24;95401.44;;;9.95;59.39
22257;BME280;11297;42.686;23.374;2022-09-24T03:09:50;95401.44;;;9.95;59.00
22257;BME280;11297;42.686;23.374;2022-09-24T03:12:15;95397.31;;;9.94;58.84
22257;BME280;11297;42.686;23.374;2022-09-24T03:14:40;95390.34;;;9.89;59.21
22257;BME280;11297;42.686;23.374;2022-09-24T03:17:06;95395.53;;;9.89;58.91
22257;BME280;11297;42.686;23.374;2022-09-24T03:19:31;95401.22;;;9.91;58.70
22257;BME280;11297;42.686;23.374;2022-09-24T03:21:57;95395.81;;;9.88;59.38
22257;BME280;11297;42.686;23.374;2022-09-24T03:24:22;95401.09;;;9.83;59.06
22257;BME280;11297;42.686;23.374;2022-09-24T03:26:47;95395.44;;;9.62;59.92
22257;BME280;11297;42.686;23.374;2022-09-24T03:29:13;95396.66;;;9.52;59.77
22257;BME280;11297;42.686;23.374;2022-09-24T03:31:38;95406.91;;;9.43;60.03
22257;BME280;11297;42.686;23.374;2022-09-24T03:34:04;95416.38;;;9.34;60.40
22257;BME280;11297;42.686;23.374;2022-09-24T03:36:29;95408.47;;;9.26;60.33
22257;BME280;11297;42.686;23.374;2022-09-24T03:38:55;95413.84;;;9.29;60.94
22257;BME280;11297;42.686;23.374;2022-09-24T03:41:22;95416.66;;;9.33;60.76
22257;BME280;11297;42.686;23.374;2022-09-24T03:43:48;95421.00;;;9.37;60.35
22257;BME280;11297;42.686;23.374;2022-09-24T03:46:15;95413.72;;;9.39;60.08
22257;BME280;11297;42.686;23.374;2022-09-24T03:48:41;95416.44;;;9.48;60.35
22257;BME280;11297;42.686;23.374;2022-09-24T03:51:12;95412.22;;;9.52;60.23
22257;BME280;11297;42.686;23.374;2022-09-24T03:53:38;95418.88;;;9.57;60.08
22257;BME280;11297;42.686;23.374;2022-09-24T03:56:04;95403.56;;;9.43;60.00
22257;BME280;11297;42.686;23.374;2022-09-24T03:58:31;95415.72;;;9.60;59.70
22257;BME280;11297;42.686;23.374;2022-09-24T04:00:58;95417.28;;;9.61;60.09
22257;BME280;11297;42.686;23.374;2022-09-24T04:03:24;95414.88;;;9.65;60.45
22257;BME280;11297;42.686;23.374;2022-09-24T04:05:50;95419.50;;;9.68;60.13
22257;BME280;11297;42.686;23.374;2022-09-24T04:08:17;95416.81;;;9.73;60.52
22257;BME280;11297;42.686;23.374;2022-09-24T04:10:46;95426.63;;;9.76;60.08
22257;BME280;11297;42.686;23.374;2022-09-24T04:13:13;95424.25;;;9.79;59.72
22257;BME280;11297;42.686;23.374;2022-09-24T04:15:39;95414.84;;;9.83;58.98
22257;BME280;11297;42.686;23.374;2022-09-24T04:18:05;95422.03;;;9.86;58.74
22257;BME280;11297;42.686;23.374;2022-09-24T04:20:30;95427.75;;;9.88;58.62
22257;BME280;11297;42.686;23.374;2022-09-24T04:22:57;95426.38;;;9.91;59.05
22257;BME280;11297;42.686;23.374;2022-09-24T04:25:25;95423.59;;;9.87;58.85
22257;BME280;11297;42.686;23.374;2022-09-24T04:27:55;95426.88;;;9.93;58.93
22257;BME280;11297;42.686;23.374;2022-09-24T04:30:22;95439.53;;;9.99;59.86
22257;BME280;11297;42.686;23.374;2022-09-24T04:32:48;95431.44;;;10.01;59.76
22257;BME280;11297;42.686;23.374;2022-09-24T04:35:16;95445.78;;;10.11;59.66
22257;BME280;11297;42.686;23.374;2022-09-24T04:37:41;95440.22;;;10.18;60.02
22257;BME280;11297;42.686;23.374;2022-09-24T04:40:07;95439.56;;;10.12;60.58
22257;BME280;11297;42.686;23.374;2022-09-24T04:42:36;95454.28;;;10.17;60.26
22257;BME280;11297;42.686;23.374;2022-09-24T04:45:02;95448.69;;;9.92;61.33
22257;BME280;11297;42.686;23.374;2022-09-24T04:47:27;95441.94;;;9.91;61.96
22257;BME280;11297;42.686;23.374;2022-09-24T04:49:53;95448.91;;;9.95;61.56
22257;BME280;11297;42.686;23.374;2022-09-24T04:52:18;95449.72;;;9.96;60.79
22257;BME280;11297;42.686;23.374;2022-09-24T04:54:44;95448.16;;;9.95;60.60
22257;BME280;11297;42.686;23.374;2022-09-24T04:57:15;95450.28;;;9.56;61.81
22257;BME280;11297;42.686;23.374;2022-09-24T04:59:41;95451.34;;;9.37;62.88
22257;BME280;11297;42.686;23.374;2022-09-24T05:02:07;95448.34;;;9.48;62.99
22257;BME280;11297;42.686;23.374;2022-09-24T05:04:34;95436.75;;;9.59;61.53
22257;BME280;11297;42.686;23.374;2022-09-24T05:06:59;95447.94;;;9.91;60.23
22257;BME280;11297;42.686;23.374;2022-09-24T05:09:24;95458.75;;;9.80;60.48
22257;BME280;11297;42.686;23.374;2022-09-24T05:11:50;95451.00;;;9.93;60.86
22257;BME280;11297;42.686;23.374;2022-09-24T05:14:16;95450.75;;;9.95;61.16
22257;BME280;11297;42.686;23.374;2022-09-24T05:16:41;95446.88;;;10.37;59.16
22257;BME280;11297;42.686;23.374;2022-09-24T05:19:06;95442.97;;;10.53;58.48
22257;BME280;11297;42.686;23.374;2022-09-24T05:21:32;95442.59;;;10.59;58.92
22257;BME280;11297;42.686;23.374;2022-09-24T05:23:57;95457.22;;;10.96;57.80
22257;BME280;11297;42.686;23.374;2022-09-24T05:26:23;95452.75;;;11.23;57.24
22257;BME280;11297;42.686;23.374;2022-09-24T05:29:06;95452.16;;;11.39;56.14
22257;BME280;11297;42.686;23.374;2022-09-24T05:31:32;95455.47;;;11.66;56.06
22257;BME280;11297;42.686;23.374;2022-09-24T05:33:57;95448.44;;;11.89;54.93
22257;BME280;11297;42.686;23.374;2022-09-24T05:36:23;95466.66;;;12.32;52.89
22257;BME280;11297;42.686;23.374;2022-09-24T05:38:51;95460.84;;;12.65;51.91
22257;BME280;11297;42.686;23.374;2022-09-24T05:41:17;95462.47;;;12.83;51.39
22257;BME280;11297;42.686;23.374;2022-09-24T05:43:42;95470.69;;;13.07;50.51
22257;BME280;11297;42.686;23.374;2022-09-24T05:46:08;95467.19;;;13.28;50.20
22257;BME280;11297;42.686;23.374;2022-09-24T05:48:33;95467.84;;;13.50;49.95
22257;BME280;11297;42.686;23.374;2022-09-24T05:51:01;95472.47;;;13.53;49.80
22257;BME280;11297;42.686;23.374;2022-09-24T05:53:27;95452.34;;;13.45;49.99
22257;BME280;11297;42.686;23.374;2022-09-24T05:55:52;95472.00;;;15.27;70.22
22257;BME280;11297;42.686;23.374;2022-09-24T05:58:18;95457.66;;;14.50;48.98
22257;BME280;11297;42.686;23.374;2022-09-24T06:00:44;95459.13;;;14.22;48.84
22257;BME280;11297;42.686;23.374;2022-09-24T06:03:14;95465.88;;;14.23;48.80
22257;BME280;11297;42.686;23.374;2022-09-24T06:05:45;95465.41;;;14.30;48.92
22257;BME280;11297;42.686;23.374;2022-09-24T06:08:11;95465.03;;;14.56;48.93
22257;BME280;11297;42.686;23.374;2022-09-24T06:10:37;95466.03;;;14.81;48.19
22257;BME280;11297;42.686;23.374;2022-09-24T06:13:03;95475.56;;;15.14;51.07
22257;BME280;11297;42.686;23.374;2022-09-24T06:15:29;95482.81;;;16.06;61.21
22257;BME280;11297;42.686;23.374;2022-09-24T06:17:55;95475.75;;;16.39;54.01
22257;BME280;11297;42.686;23.374;2022-09-24T06:20:21;95482.09;;;16.82;54.85
22257;BME280;11297;42.686;23.374;2022-09-24T06:22:47;95477.34;;;17.08;54.05
22257;BME280;11297;42.686;23.374;2022-09-24T06:25:13;95476.25;;;17.44;49.03
22257;BME280;11297;42.686;23.374;2022-09-24T06:27:38;95479.13;;;17.78;51.97
22257;BME280;11297;42.686;23.374;2022-09-24T06:30:04;95465.25;;;18.17;43.77
22257;BME280;11297;42.686;23.374;2022-09-24T06:32:30;95475.69;;;18.14;52.46
22257;BME280;11297;42.686;23.374;2022-09-24T06:34:55;95473.63;;;18.77;50.92
22257;BME280;11297;42.686;23.374;2022-09-24T06:37:21;95477.88;;;19.12;46.17
22257;BME280;11297;42.686;23.374;2022-09-24T06:39:46;95476.66;;;19.56;45.88
22257;BME280;11297;42.686;23.374;2022-09-24T06:42:12;95480.38;;;20.04;44.14
22257;BME280;11297;42.686;23.374;2022-09-24T06:44:37;95482.13;;;20.15;47.07
22257;BME280;11297;42.686;23.374;2022-09-24T06:47:03;95480.63;;;20.56;44.75
22257;BME280;11297;42.686;23.374;2022-09-24T06:49:28;95480.44;;;20.45;39.01
22257;BME280;11297;42.686;23.374;2022-09-24T06:51:54;95478.56;;;20.08;41.28
22257;BME280;11297;42.686;23.374;2022-09-24T06:54:20;95482.38;;;20.29;44.52
22257;BME280;11297;42.686;23.374;2022-09-24T06:56:45;95476.13;;;20.75;43.26
22257;BME280;11297;42.686;23.374;2022-09-24T06:59:11;95470.00;;;20.93;45.35
22257;BME280;11297;42.686;23.374;2022-09-24T07:01:36;95476.22;;;21.04;45.42
22257;BME280;11297;42.686;23.374;2022-09-24T07:04:02;95471.69;;;21.27;39.21
22257;BME280;11297;42.686;23.374;2022-09-24T07:06:27;95473.00;;;21.40;36.09
22257;BME280;11297;42.686;23.374;2022-09-24T07:09:13;95477.25;;;19.65;39.24
22257;BME280;11297;42.686;23.374;2022-09-24T07:11:38;95464.47;;;19.17;41.74
22257;BME280;11297;42.686;23.374;2022-09-24T07:14:04;95483.69;;;19.02;40.35
22257;BME280;11297;42.686;23.374;2022-09-24T07:16:29;95479.06;;;19.79;40.75
22257;BME280;11297;42.686;23.374;2022-09-24T07:18:54;95479.09;;;19.15;43.11
22257;BME280;11297;42.686;23.374;2022-09-24T07:21:20;95481.25;;;18.97;39.54
22257;BME280;11297;42.686;23.374;2022-09-24T07:23:45;95470.13;;;18.58;40.94
22257;BME280;11297;42.686;23.374;2022-09-24T07:26:11;95426.28;;;18.50;41.18
22257;BME280;11297;42.686;23.374;2022-09-24T07:28:37;95466.56;;;18.81;40.08
22257;BME280;11297;42.686;23.374;2022-09-24T07:31:05;95467.03;;;18.56;41.14
22257;BME280;11297;42.686;23.374;2022-09-24T07:33:31;95474.31;;;18.47;41.34
22257;BME280;11297;42.686;23.374;2022-09-24T07:35:56;95469.22;;;18.96;41.01
22257;BME280;11297;42.686;23.374;2022-09-24T07:38:22;95467.41;;;18.85;40.43
22257;BME280;11297;42.686;23.374;2022-09-24T07:40:47;95469.84;;;18.47;40.97
22257;BME280;11297;42.686;23.374;2022-09-24T07:43:13;95470.56;;;19.21;41.37
22257;BME280;11297;42.686;23.374;2022-09-24T07:45:39;95456.63;;;18.74;39.63
22257;BME280;11297;42.686;23.374;2022-09-24T07:48:05;95467.34;;;18.97;43.65
22257;BME280;11297;42.686;23.374;2022-09-24T07:50:37;95457.31;;;19.33;40.02
22257;BME280;11297;42.686;23.374;2022-09-24T07:53:03;95458.47;;;19.51;41.74
22257;BME280;11297;42.686;23.374;2022-09-24T07:55:30;95467.50;;;19.84;38.90
22257;BME280;11297;42.686;23.374;2022-09-24T07:57:55;95450.84;;;20.17;38.16
22257;BME280;11297;42.686;23.374;2022-09-24T08:00:23;95456.06;;;19.95;39.26
22257;BME280;11297;42.686;23.374;2022-09-24T08:02:49;95451.47;;;19.58;37.57
22257;BME280;11297;42.686;23.374;2022-09-24T08:05:16;95462.03;;;19.92;44.82
22257;BME280;11297;42.686;23.374;2022-09-24T08:07:49;95457.38;;;20.83;37.78
22257;BME280;11297;42.686;23.374;2022-09-24T08:10:14;95454.00;;;20.23;39.58
22257;BME280;11297;42.686;23.374;2022-09-24T08:12:40;95456.94;;;20.59;39.46
22257;BME280;11297;42.686;23.374;2022-09-24T08:15:05;95448.72;;;21.31;39.52
22257;BME280;11297;42.686;23.374;2022-09-24T08:17:31;95447.41;;;21.69;36.22
22257;BME280;11297;42.686;23.374;2022-09-24T08:19:57;95457.22;;;21.43;38.81
22257;BME280;11297;42.686;23.374;2022-09-24T08:22:22;95450.03;;;21.18;34.83
22257;BME280;11297;42.686;23.374;2022-09-24T08:24:49;95449.31;;;21.98;37.15
22257;BME280;11297;42.686;23.374;2022-09-24T08:27:15;95445.88;;;21.43;35.05
22257;BME280;11297;42.686;23.374;2022-09-24T08:29:41;95453.63;;;21.80;34.82
22257;BME280;11297;42.686;23.374;2022-09-24T08:32:07;95442.63;;;22.08;34.96
22257;BME280;11297;42.686;23.374;2022-09-24T08:34:32;95443.88;;;21.59;37.53
22257;BME280;11297;42.686;23.374;2022-09-24T08:37:03;95445.13;;;21.97;33.26
22257;BME280;11297;42.686;23.374;2022-09-24T08:39:29;95439.25;;;21.81;34.47
22257;BME280;11297;42.686;23.374;2022-09-24T08:41:57;95430.41;;;22.29;34.10
22257;BME280;11297;42.686;23.374;2022-09-24T08:50:14;95433.91;;;22.36;35.34
22257;BME280;11297;42.686;23.374;2022-09-24T08:55:17;95427.22;;;22.49;33.33
22257;BME280;11297;42.686;23.374;2022-09-24T08:58:03;95426.72;;;23.16;32.39
22257;BME280;11297;42.686;23.374;2022-09-24T09:00:42;95414.50;;;23.05;32.23
22257;BME280;11297;42.686;23.374;2022-09-24T09:09:19;95410.81;;;23.12;31.85
22257;BME280;11297;42.686;23.374;2022-09-24T09:11:49;95405.31;;;22.19;33.89
22257;BME280;11297;42.686;23.374;2022-09-24T09:14:20;95407.31;;;22.26;33.25
22257;BME280;11297;42.686;23.374;2022-09-24T09:16:51;95408.78;;;22.59;32.54
22257;BME280;11297;42.686;23.374;2022-09-24T09:19:18;95401.69;;;22.70;32.20
22257;BME280;11297;42.686;23.374;2022-09-24T09:21:51;95406.13;;;22.56;32.70
22257;BME280;11297;42.686;23.374;2022-09-24T09:24:29;95406.13;;;22.59;33.46
22257;BME280;11297;42.686;23.374;2022-09-24T09:26:59;95401.94;;;22.55;33.11
22257;BME280;11297;42.686;23.374;2022-09-24T09:29:25;95395.53;;;22.59;32.15
22257;BME280;11297;42.686;23.374;2022-09-24T09:32:15;95397.00;;;22.54;32.88
22257;BME280;11297;42.686;23.374;2022-09-24T09:42:48;95372.78;;;22.95;33.56
22257;BME280;11297;42.686;23.374;2022-09-24T09:47:49;95371.91;;;23.30;31.55
22257;BME280;11297;42.686;23.374;2022-09-24T09:52:44;95367.38;;;24.19;36.34
22257;BME280;11297;42.686;23.374;2022-09-24T09:55:26;95369.03;;;24.68;31.29
22257;BME280;11297;42.686;23.374;2022-09-24T09:57:52;95357.81;;;23.94;31.69
22257;BME280;11297;42.686;23.374;2022-09-24T10:00:34;95346.91;;;24.26;32.43
22257;BME280;11297;42.686;23.374;2022-09-24T10:03:01;95338.44;;;23.83;32.17
22257;BME280;11297;42.686;23.374;2022-09-24T10:05:27;95343.50;;;23.34;32.61
22257;BME280;11297;42.686;23.374;2022-09-24T10:07:55;95336.50;;;23.06;36.60
22257;BME280;11297;42.686;23.374;2022-09-24T10:10:25;95337.69;;;23.11;33.46
22257;BME280;11297;42.686;23.374;2022-09-24T10:13:13;95337.34;;;23.98;35.75
22257;BME280;11297;42.686;23.374;2022-09-24T10:18:32;95336.97;;;25.79;35.63
22257;BME280;11297;42.686;23.374;2022-09-24T10:21:01;95323.13;;;26.08;30.42
22257;BME280;11297;42.686;23.374;2022-09-24T10:23:42;95321.44;;;26.39;33.18
22257;BME280;11297;42.686;23.374;2022-09-24T10:26:09;95319.50;;;26.97;34.93
22257;BME280;11297;42.686;23.374;2022-09-24T10:28:39;95316.81;;;27.37;29.14
22257;BME280;11297;42.686;23.374;2022-09-24T10:31:28;95316.47;;;26.95;30.46
22257;BME280;11297;42.686;23.374;2022-09-24T10:33:56;95314.53;;;25.80;28.66
22257;BME280;11297;42.686;23.374;2022-09-24T10:36:26;95314.94;;;25.68;34.59
22257;BME280;11297;42.686;23.374;2022-09-24T10:41:29;95315.91;;;26.02;31.32
22257;BME280;11297;42.686;23.374;2022-09-24T10:43:56;95316.44;;;25.76;31.64
22257;BME280;11297;42.686;23.374;2022-09-24T10:47:06;95306.59;;;25.59;35.48
22257;BME280;11297;42.686;23.374;2022-09-24T11:00:41;95300.06;;;26.46;39.66
22257;BME280;11297;42.686;23.374;2022-09-24T11:06:23;95287.22;;;26.30;29.45
22257;BME280;11297;42.686;23.374;2022-09-24T11:16:30;95298.41;;;24.64;34.07
22257;BME280;11297;42.686;23.374;2022-09-24T11:19:22;95294.97;;;24.36;40.90
22257;BME280;11297;42.686;23.374;2022-09-24T11:37:58;95262.13;;;23.55;32.11
22257;BME280;11297;42.686;23.374;2022-09-24T11:40:51;95250.81;;;23.72;31.96
22257;BME280;11297;42.686;23.374;2022-09-24T11:52:08;95257.88;;;22.73;35.22
22257;BME280;11297;42.686;23.374;2022-09-24T12:00:31;95242.84;;;22.88;33.76
22257;BME280;11297;42.686;23.374;2022-09-24T12:03:08;95241.53;;;22.64;30.19
22257;BME280;11297;42.686;23.374;2022-09-24T12:05:59;95246.09;;;22.67;35.64
22257;BME280;11297;42.686;23.374;2022-09-24T12:08:31;95236.50;;;22.99;38.09
22257;BME280;11297;42.686;23.374;2022-09-24T12:11:15;95231.78;;;23.53;33.53
22257;BME280;11297;42.686;23.374;2022-09-24T12:13:49;95230.22;;;23.42;30.63
22257;BME280;11297;42.686;23.374;2022-09-24T12:16:19;95240.13;;;23.55;32.51
22257;BME280;11297;42.686;23.374;2022-09-24T12:19:00;95248.94;;;23.66;32.00
22257;BME280;11297;42.686;23.374;2022-09-24T12:21:39;95237.47;;;23.52;30.53
22257;BME280;11297;42.686;23.374;2022-09-24T12:26:58;95239.44;;;23.65;28.02
22257;BME280;11297;42.686;23.374;2022-09-24T12:32:49;95225.25;;;23.30;35.38
22257;BME280;11297;42.686;23.374;2022-09-24T12:35:38;95228.69;;;23.37;34.75
22257;BME280;11297;42.686;23.374;2022-09-24T12:40:59;95228.00;;;23.54;33.56
22257;BME280;11297;42.686;23.374;2022-09-24T12:43:46;95230.94;;;23.25;28.60
22257;BME280;11297;42.686;23.374;2022-09-24T12:46:29;95227.13;;;23.22;36.71
22257;BME280;11297;42.686;23.374;2022-09-24T12:48:56;95230.97;;;23.32;32.75
22257;BME280;11297;42.686;23.374;2022-09-24T12:51:22;95216.56;;;23.33;42.94
22257;BME280;11297;42.686;23.374;2022-09-24T12:54:03;95236.03;;;23.68;44.44
22257;BME280;11297;42.686;23.374;2022-09-24T12:56:29;95231.91;;;23.81;41.00
22257;BME280;11297;42.686;23.374;2022-09-24T12:58:56;95222.44;;;24.01;45.69
22257;BME280;11297;42.686;23.374;2022-09-24T13:06:46;95218.63;;;23.81;42.10
22257;BME280;11297;42.686;23.374;2022-09-24T13:09:35;95203.38;;;23.57;33.49
22257;BME280;11297;42.686;23.374;2022-09-24T13:12:16;95209.78;;;23.49;33.91
22257;BME280;11297;42.686;23.374;2022-09-24T13:17:14;95199.72;;;22.94;27.11
22257;BME280;11297;42.686;23.374;2022-09-24T13:19:44;95195.03;;;22.70;27.59
22257;BME280;11297;42.686;23.374;2022-09-24T13:22:32;95199.59;;;22.73;28.72
22257;BME280;11297;42.686;23.374;2022-09-24T13:27:38;95200.31;;;22.63;27.85
22257;BME280;11297;42.686;23.374;2022-09-24T13:32:56;95191.56;;;22.56;28.28
22257;BME280;11297;42.686;23.374;2022-09-24T13:35:27;95186.97;;;22.50;28.63
22257;BME280;11297;42.686;23.374;2022-09-24T13:40:36;95177.38;;;22.31;27.77
22257;BME280;11297;42.686;23.374;2022-09-24T13:43:16;95178.25;;;21.99;27.90
22257;BME280;11297;42.686;23.374;2022-09-24T13:45:44;95185.34;;;21.88;28.82
22257;BME280;11297;42.686;23.374;2022-09-24T13:48:37;95179.97;;;21.78;29.26
22257;BME280;11297;42.686;23.374;2022-09-24T13:51:10;95162.25;;;21.85;28.60
22257;BME280;11297;42.686;23.374;2022-09-24T13:56:14;95161.31;;;22.07;28.94
22257;BME280;11297;42.686;23.374;2022-09-24T13:58:40;95166.56;;;22.04;28.68
22257;BME280;11297;42.686;23.374;2022-09-24T14:01:13;95133.53;;;21.87;28.65
22257;BME280;11297;42.686;23.374;2022-09-24T14:03:41;95152.94;;;21.98;28.58
22257;BME280;11297;42.686;23.374;2022-09-24T14:06:12;95151.03;;;21.99;28.46
22257;BME280;11297;42.686;23.374;2022-09-24T14:08:42;95156.75;;;22.04;28.51
22257;BME280;11297;42.686;23.374;2022-09-24T14:11:21;95160.50;;;22.03;28.84
22257;BME280;11297;42.686;23.374;2022-09-24T14:13:49;95151.47;;;22.04;28.76
22257;BME280;11297;42.686;23.374;2022-09-24T14:16:19;95149.19;;;22.06;29.44
22257;BME280;11297;42.686;23.374;2022-09-24T14:18:46;95156.38;;;22.06;28.84
22257;BME280;11297;42.686;23.374;2022-09-24T14:21:29;95157.53;;;22.08;29.03
22257;BME280;11297;42.686;23.374;2022-09-24T14:24:11;95160.88;;;22.02;28.15
22257;BME280;11297;42.686;23.374;2022-09-24T14:26:46;95156.25;;;21.92;29.14
22257;BME280;11297;42.686;23.374;2022-09-24T14:29:16;95159.28;;;21.90;29.22
22257;BME280;11297;42.686;23.374;2022-09-24T14:31:48;95153.25;;;21.93;28.99
22257;BME280;11297;42.686;23.374;2022-09-24T14:36:47;95147.66;;;22.02;29.82
22257;BME280;11297;42.686;23.374;2022-09-24T14:39:13;95152.56;;;22.00;29.77
22257;BME280;11297;42.686;23.374;2022-09-24T14:41:38;95156.34;;;22.02;29.65
22257;BME280;11297;42.686;23.374;2022-09-24T14:44:07;95153.31;;;22.04;29.98
22257;BME280;11297;42.686;23.374;2022-09-24T14:46:42;95164.72;;;22.08;29.15
22257;BME280;11297;42.686;23.374;2022-09-24T14:49:26;95161.34;;;22.14;29.40
22257;BME280;11297;42.686;23.374;2022-09-24T14:51:59;95161.75;;;22.16;29.44
22257;BME280;11297;42.686;23.374;2022-09-24T14:54:32;95167.53;;;22.25;29.08
22257;BME280;11297;42.686;23.374;2022-09-24T14:57:34;95161.88;;;22.30;29.58
22257;BME280;11297;42.686;23.374;2022-09-24T14:59:59;95166.00;;;22.27;30.28
22257;BME280;11297;42.686;23.374;2022-09-24T15:04:56;95162.97;;;22.22;30.31
22257;BME280;11297;42.686;23.374;2022-09-24T15:07:27;95163.34;;;22.24;30.50
22257;BME280;11297;42.686;23.374;2022-09-24T15:09:56;95162.88;;;22.15;31.44
22257;BME280;11297;42.686;23.374;2022-09-24T15:12:27;95156.41;;;22.12;31.47
22257;BME280;11297;42.686;23.374;2022-09-24T15:15:01;95141.25;;;22.03;31.92
22257;BME280;11297;42.686;23.374;2022-09-24T15:17:32;95164.34;;;22.12;32.00